createdAt,value
2019-04-10T00:00:55.118Z,7.01
2019-04-10T00:03:31.847Z,6.96
2019-04-10T00:05:52.742Z,6.94
2019-04-10T00:08:20.516Z,6.90
2019-04-10T00:10:48.251Z,6.78
2019-04-10T00:13:16.026Z,6.83
2019-04-10T00:15:43.778Z,6.79
2019-04-10T00:18:11.635Z,6.65
2019-04-10T00:20:39.430Z,6.74
2019-04-10T00:23:08.934Z,6.73
2019-04-10T00:25:37.076Z,6.72
2019-04-10T00:28:05.311Z,6.72
2019-04-10T00:30:33.349Z,6.66
2019-04-10T00:33:01.146Z,6.45
2019-04-10T00:35:29.738Z,6.51
2019-04-10T00:37:57.575Z,6.66
2019-04-10T00:40:25.627Z,6.43
2019-04-10T00:45:21.718Z,6.27
2019-04-10T00:47:49.546Z,6.25
2019-04-10T00:50:18.182Z,6.14
2019-04-10T00:52:46.207Z,6.18
2019-04-10T00:55:13.997Z,6.16
2019-04-10T00:57:41.734Z,6.15
2019-04-10T01:00:09.801Z,6.14
2019-04-10T01:02:37.664Z,5.94
2019-04-10T01:05:05.601Z,5.91
2019-04-10T01:07:39.429Z,5.89
2019-04-10T01:10:04.358Z,5.95
2019-04-10T01:12:32.131Z,5.92
2019-04-10T01:15:00.261Z,5.82
2019-04-10T01:17:28.552Z,5.89
2019-04-10T01:19:56.551Z,5.85
2019-04-10T01:22:25.316Z,5.83
2019-04-10T01:24:54.338Z,5.73
2019-04-10T01:27:22.241Z,5.63
2019-04-10T01:29:50.003Z,5.54
2019-04-10T01:32:17.728Z,5.57
2019-04-10T01:34:45.549Z,5.73
2019-04-10T01:37:13.442Z,5.71
2019-04-10T01:39:42.262Z,5.67
2019-04-10T01:42:10.050Z,5.68
2019-04-10T01:44:38.568Z,5.72
2019-04-10T01:47:06.773Z,5.66
2019-04-10T01:49:34.638Z,5.61
2019-04-10T01:52:02.381Z,5.60
2019-04-10T01:54:31.120Z,5.53
2019-04-10T01:56:59.715Z,5.45
2019-04-10T01:59:29.902Z,5.34
2019-04-10T02:02:05.463Z,5.35
2019-04-10T02:04:33.204Z,5.41
2019-04-10T02:07:02.081Z,5.32
2019-04-10T02:09:29.866Z,5.23
2019-04-10T02:11:58.522Z,5.25
2019-04-10T02:14:26.352Z,5.30
2019-04-10T02:16:54.897Z,5.23
2019-04-10T02:19:23.852Z,5.12
2019-04-10T02:21:51.893Z,5.05
2019-04-10T02:24:19.634Z,4.95
2019-04-10T02:26:47.739Z,4.99
2019-04-10T02:29:15.607Z,5.02
2019-04-10T02:31:44.216Z,4.98
2019-04-10T02:34:12.900Z,4.97
2019-04-10T02:36:42.419Z,4.93
2019-04-10T02:39:20.640Z,4.86
2019-04-10T02:41:41.422Z,4.87
2019-04-10T02:44:10.237Z,4.92
2019-04-10T02:46:38.857Z,4.87
2019-04-10T02:49:08.117Z,4.89
2019-04-10T02:51:36.350Z,4.76
2019-04-10T02:54:05.099Z,4.75
2019-04-10T02:56:33.250Z,4.64
2019-04-10T02:59:02.683Z,4.79
2019-04-10T03:01:31.562Z,4.69
2019-04-10T03:03:59.458Z,4.68
2019-04-10T03:06:27.377Z,4.57
2019-04-10T03:09:13.820Z,4.61
2019-04-10T03:11:26.482Z,4.52
2019-04-10T03:13:55.597Z,4.52
2019-04-10T03:16:23.709Z,4.51
2019-04-10T03:18:51.507Z,4.58
2019-04-10T03:21:19.238Z,4.55
2019-04-10T03:23:47.567Z,4.44
2019-04-10T03:26:15.438Z,4.51
2019-04-10T03:28:43.206Z,4.48
2019-04-10T03:31:12.935Z,4.35
2019-04-10T03:34:00.993Z,4.38
2019-04-10T03:36:36.019Z,4.36
2019-04-10T03:39:07.947Z,4.28
2019-04-10T03:41:36.663Z,4.21
2019-04-10T03:44:04.592Z,4.19
2019-04-10T03:46:33.237Z,4.31
2019-04-10T03:49:01.239Z,4.21
2019-04-10T03:51:30.297Z,4.28
2019-04-10T03:53:58.462Z,4.26
2019-04-10T03:56:26.678Z,4.12
2019-04-10T03:58:54.412Z,4.14
2019-04-10T04:01:22.991Z,4.13
2019-04-10T04:03:51.153Z,4.25
2019-04-10T04:06:19.575Z,4.07
2019-04-10T04:08:47.957Z,4.05
2019-04-10T04:11:17.613Z,3.95
2019-04-10T04:13:45.905Z,3.94
2019-04-10T04:16:13.653Z,3.90
2019-04-10T04:18:41.553Z,4.02
2019-04-10T04:21:09.747Z,4.04
2019-04-10T04:23:38.284Z,4.08
2019-04-10T04:26:07.160Z,3.92
2019-04-10T04:28:34.981Z,3.83
2019-04-10T04:31:03.124Z,3.80
2019-04-10T04:33:31.906Z,3.86
2019-04-10T04:35:59.924Z,3.93
2019-04-10T04:38:27.742Z,4.01
2019-04-10T04:40:55.604Z,4.12
2019-04-10T04:43:23.429Z,3.99
2019-04-10T04:45:51.607Z,4.05
2019-04-10T04:48:19.569Z,4.00
2019-04-10T04:50:47.427Z,3.97
2019-04-10T04:53:16.236Z,4.06
2019-04-10T04:55:44.972Z,4.02
2019-04-10T04:58:13.768Z,4.09
2019-04-10T05:00:41.805Z,4.18
2019-04-10T05:03:10.012Z,4.09
2019-04-10T05:05:37.781Z,4.19
2019-04-10T05:08:06.861Z,4.08
2019-04-10T05:10:35.670Z,4.22
2019-04-10T05:13:04.051Z,4.25
2019-04-10T05:15:31.880Z,4.32
2019-04-10T05:17:59.764Z,4.27
2019-04-10T05:20:39.458Z,4.25
2019-04-10T05:22:57.629Z,4.36
2019-04-10T05:25:25.408Z,4.32
2019-04-10T05:27:53.272Z,4.39
2019-04-10T05:30:21.034Z,4.39
2019-04-10T05:32:49.367Z,4.49
2019-04-10T05:35:17.290Z,4.58
2019-04-10T05:37:45.698Z,4.67
2019-04-10T05:40:13.576Z,4.69
2019-04-10T05:42:41.606Z,4.74
2019-04-10T05:45:09.712Z,4.92
2019-04-10T05:47:38.459Z,5.16
2019-04-10T05:50:07.110Z,5.44
2019-04-10T05:52:35.334Z,5.44
2019-04-10T05:55:04.199Z,5.49
2019-04-10T05:57:32.885Z,5.44
2019-04-10T06:00:00.728Z,5.54
2019-04-10T06:02:28.495Z,5.42
2019-04-10T06:04:56.282Z,5.42
2019-04-10T06:07:24.027Z,5.37
2019-04-10T06:09:55.818Z,5.46
2019-04-10T06:12:22.351Z,5.65
2019-04-10T06:14:50.480Z,5.64
2019-04-10T06:17:18.455Z,5.67
2019-04-10T06:19:46.829Z,5.73
2019-04-10T06:22:14.712Z,5.77
2019-04-10T06:24:42.571Z,5.93
2019-04-10T06:27:10.417Z,6.02
2019-04-10T06:29:39.331Z,6.02
2019-04-10T06:32:07.397Z,6.34
2019-04-10T06:34:36.295Z,6.77
2019-04-10T06:37:04.228Z,6.81
2019-04-10T06:39:33.004Z,7.06
2019-04-10T06:42:00.905Z,7.32
2019-04-10T06:44:28.665Z,7.60
2019-04-10T06:46:57.044Z,7.59
2019-04-10T06:49:24.965Z,7.93
2019-04-10T06:51:53.527Z,8.13
2019-04-10T06:54:21.358Z,8.15
2019-04-10T06:56:50.282Z,8.01
2019-04-10T06:59:18.120Z,7.83
2019-04-10T07:01:51.214Z,7.73
2019-04-10T07:04:15.570Z,7.47
2019-04-10T07:06:52.824Z,7.50
2019-04-10T07:09:21.374Z,7.30
2019-04-10T07:11:53.442Z,7.18
2019-04-10T07:14:18.461Z,7.15
2019-04-10T07:16:46.507Z,7.26
2019-04-10T07:19:14.287Z,7.30
2019-04-10T07:21:42.691Z,7.43
2019-04-10T07:24:12.206Z,7.38
2019-04-10T07:26:43.728Z,7.50
2019-04-10T07:29:10.948Z,7.83
2019-04-10T07:31:39.766Z,7.91
2019-04-10T07:34:08.727Z,8.11
2019-04-10T07:36:41.636Z,8.31
2019-04-10T07:39:07.698Z,8.54
2019-04-10T07:41:35.584Z,8.73
2019-04-10T07:44:03.727Z,8.93
2019-04-10T07:46:32.575Z,9.20
2019-04-10T07:49:00.744Z,9.71
2019-04-10T07:51:29.730Z,10.38
2019-04-10T07:53:57.794Z,11.59
2019-04-10T07:56:26.665Z,13.43
2019-04-10T07:58:54.569Z,16.03
2019-04-10T08:01:22.332Z,19.43
2019-04-10T08:03:52.389Z,22.09
2019-04-10T08:06:20.006Z,24.88
2019-04-10T08:08:47.813Z,25.92
2019-04-10T08:11:15.552Z,27.52
2019-04-10T08:13:43.327Z,28.08
2019-04-10T08:16:11.257Z,29.35
2019-04-10T08:18:39.461Z,30.04
2019-04-10T08:21:08.272Z,29.73
2019-04-10T08:23:36.032Z,30.27
2019-04-10T08:26:03.874Z,30.05
2019-04-10T08:28:32.794Z,29.87
2019-04-10T08:31:01.008Z,30.01
2019-04-10T08:33:30.123Z,28.82
2019-04-10T08:35:58.935Z,30.07
2019-04-10T08:38:27.939Z,31.65
2019-04-10T08:40:56.607Z,32.09
2019-04-10T08:43:24.518Z,32.71
2019-04-10T08:45:53.677Z,29.92
2019-04-10T08:48:22.010Z,31.16
2019-04-10T08:50:50.373Z,31.58
2019-04-10T08:53:18.190Z,31.92
2019-04-10T08:55:46.231Z,32.95
2019-04-10T08:58:14.513Z,34.13
2019-04-10T09:00:42.846Z,30.97
2019-04-10T09:03:10.896Z,30.81
2019-04-10T09:05:38.797Z,31.74
2019-04-10T09:08:06.543Z,32.85
2019-04-10T09:10:34.868Z,34.00
2019-04-10T09:13:02.604Z,34.45
2019-04-10T09:15:30.352Z,32.55
2019-04-10T09:17:58.077Z,32.47
2019-04-10T09:20:26.785Z,32.56
2019-04-10T09:23:13.402Z,32.90
2019-04-10T09:25:24.924Z,32.02
2019-04-10T09:27:53.815Z,34.43
2019-04-10T09:30:21.688Z,35.24
2019-04-10T09:32:49.425Z,35.58
2019-04-10T09:35:18.293Z,36.52
2019-04-10T09:37:46.285Z,36.55
2019-04-10T09:40:14.415Z,36.54
2019-04-10T09:42:42.202Z,37.75
2019-04-10T09:45:10.056Z,38.01
2019-04-10T09:47:37.803Z,38.29
2019-04-10T09:50:07.707Z,37.39
2019-04-10T09:52:35.763Z,32.93
2019-04-10T09:55:05.126Z,34.65
2019-04-10T09:57:32.860Z,35.81
2019-04-10T10:00:00.989Z,36.04
2019-04-10T10:02:28.754Z,36.63
2019-04-10T10:04:56.499Z,35.38
2019-04-10T10:07:24.241Z,37.08
2019-04-10T10:09:52.034Z,38.21
2019-04-10T10:12:20.192Z,35.77
2019-04-10T10:14:48.388Z,36.07
2019-04-10T10:17:16.904Z,36.99
2019-04-10T10:19:45.998Z,36.64
2019-04-10T10:22:14.681Z,38.45
2019-04-10T10:24:42.667Z,39.11
2019-04-10T10:27:10.541Z,39.10
2019-04-10T10:29:38.342Z,41.20
2019-04-10T10:32:06.090Z,42.13
2019-04-10T10:34:34.573Z,41.89
2019-04-10T10:37:03.874Z,42.26
2019-04-10T10:39:31.756Z,40.30
2019-04-10T10:41:59.511Z,41.02
2019-04-10T10:44:27.272Z,40.38
2019-04-10T10:46:55.773Z,39.54
2019-04-10T10:49:24.355Z,39.91
2019-04-10T10:51:53.215Z,39.66
2019-04-10T10:54:21.247Z,39.02
2019-04-10T10:56:49.065Z,38.14
2019-04-10T10:59:17.577Z,39.51
2019-04-10T11:01:46.324Z,39.51
2019-04-10T11:04:15.036Z,39.64
2019-04-10T11:06:51.759Z,39.04
2019-04-10T11:09:15.632Z,39.12
2019-04-10T11:11:43.553Z,40.16
2019-04-10T11:14:11.416Z,38.36
2019-04-10T11:16:39.284Z,39.86
2019-04-10T11:19:07.169Z,39.75
2019-04-10T11:21:35.008Z,41.59
2019-04-10T11:24:03.141Z,41.96
2019-04-10T11:26:31.002Z,40.51
2019-04-10T11:28:59.148Z,41.23
2019-04-10T11:31:26.924Z,41.94
2019-04-10T11:33:56.405Z,40.60
2019-04-10T11:36:24.352Z,39.99
2019-04-10T11:38:55.328Z,40.32
2019-04-10T11:41:23.424Z,40.34
2019-04-10T11:43:52.669Z,40.60
2019-04-10T11:46:22.727Z,36.82
2019-04-10T11:48:51.919Z,33.24
2019-04-10T11:51:23.325Z,36.39
2019-04-10T11:53:54.390Z,38.16
2019-04-10T11:56:21.186Z,38.63
2019-04-10T12:01:21.610Z,40.02
2019-04-10T12:03:51.561Z,35.52
2019-04-10T12:06:20.682Z,37.47
2019-04-10T12:09:08.530Z,36.94
2019-04-10T12:11:19.932Z,39.54
2019-04-10T12:13:46.980Z,39.99
2019-04-10T12:16:14.836Z,36.55
2019-04-10T12:18:42.612Z,35.72
2019-04-10T12:21:10.464Z,35.59
2019-04-10T12:23:38.184Z,36.12
2019-04-10T12:26:05.935Z,37.98
2019-04-10T12:28:33.911Z,37.18
2019-04-10T12:31:01.823Z,37.07
2019-04-10T12:33:29.734Z,39.63
2019-04-10T12:35:58.208Z,40.38
2019-04-10T12:38:26.024Z,40.63
2019-04-10T12:40:53.739Z,39.21
2019-04-10T12:43:21.495Z,38.62
2019-04-10T12:45:49.269Z,38.18
2019-04-10T12:48:20.837Z,39.42
2019-04-10T12:50:49.513Z,39.29
2019-04-10T12:53:17.401Z,39.69
2019-04-10T12:55:45.868Z,39.70
2019-04-10T12:58:17.593Z,39.03
2019-04-10T13:00:44.596Z,36.21
2019-04-10T13:03:12.464Z,37.53
2019-04-10T13:05:41.132Z,38.50
2019-04-10T13:08:19.050Z,36.49
2019-04-10T13:10:39.808Z,37.45
2019-04-10T13:13:07.629Z,37.99
2019-04-10T13:15:35.406Z,38.53
2019-04-10T13:18:03.870Z,35.83
2019-04-10T13:20:31.707Z,33.30
2019-04-10T13:23:00.331Z,35.06
2019-04-10T13:25:28.209Z,36.08
2019-04-10T13:27:56.012Z,36.11
2019-04-10T13:30:24.929Z,36.39
2019-04-10T13:32:53.021Z,34.57
2019-04-10T13:35:21.941Z,37.36
2019-04-10T13:37:50.638Z,36.28
2019-04-10T13:40:19.443Z,35.78
2019-04-10T13:42:47.455Z,34.62
2019-04-10T13:45:17.425Z,34.70
2019-04-10T13:47:45.299Z,33.66
2019-04-10T13:50:13.200Z,31.65
2019-04-10T13:52:42.928Z,32.63
2019-04-10T13:55:11.697Z,32.83
2019-04-10T13:57:39.574Z,30.52
2019-04-10T14:00:13.200Z,28.23
2019-04-10T14:02:41.558Z,29.94
2019-04-10T14:05:11.733Z,31.12
2019-04-10T14:07:40.200Z,30.60
2019-04-10T14:10:08.418Z,28.68
2019-04-10T14:12:36.456Z,27.97
2019-04-10T14:15:05.042Z,29.05
2019-04-10T14:17:33.374Z,30.81
2019-04-10T14:20:01.143Z,32.37
2019-04-10T14:22:29.546Z,31.77
2019-04-10T14:24:57.423Z,31.12
2019-04-10T14:27:27.881Z,30.14
2019-04-10T14:29:56.656Z,29.56
2019-04-10T14:32:29.460Z,30.18
2019-04-10T14:34:57.241Z,28.58
2019-04-10T14:37:25.327Z,26.96
2019-04-10T14:39:53.211Z,24.96
2019-04-10T14:42:20.944Z,23.64
2019-04-10T14:44:48.756Z,22.26
2019-04-10T14:47:17.168Z,20.97
2019-04-10T14:49:45.188Z,18.76
2019-04-10T14:52:13.026Z,18.21
2019-04-10T14:54:40.796Z,17.50
2019-04-10T14:57:08.542Z,17.08
2019-04-10T14:59:36.275Z,16.95
2019-04-10T15:02:06.378Z,16.85
2019-04-10T15:04:35.222Z,16.64
2019-04-10T15:07:03.929Z,16.10
2019-04-10T15:09:32.501Z,15.75
2019-04-10T15:12:00.252Z,15.69
2019-04-10T15:14:28.040Z,15.31
2019-04-10T15:17:03.492Z,15.22
2019-04-10T15:19:26.737Z,15.43
2019-04-10T15:21:55.773Z,15.56
2019-04-10T15:24:23.812Z,15.26
2019-04-10T15:26:51.702Z,15.19
2019-04-10T15:29:21.196Z,15.21
2019-04-10T15:31:49.992Z,15.34
2019-04-10T15:34:18.314Z,14.94
2019-04-10T15:36:47.609Z,14.59
2019-04-10T15:39:16.819Z,14.54
2019-04-10T15:41:45.535Z,14.07
2019-04-10T15:44:14.079Z,14.00
2019-04-10T15:46:43.529Z,14.20
2019-04-10T15:49:11.395Z,14.36
2019-04-10T15:51:39.329Z,14.27
2019-04-10T15:54:07.702Z,14.08
2019-04-10T15:56:36.136Z,14.20
2019-04-10T15:59:04.049Z,14.25
2019-04-10T16:01:32.971Z,13.85
2019-04-10T16:04:01.155Z,13.69
2019-04-10T16:06:29.348Z,13.77
2019-04-10T16:08:57.175Z,13.72
2019-04-10T16:11:56.731Z,13.66
2019-04-10T16:14:28.404Z,13.61
2019-04-10T16:17:17.493Z,13.41
2019-04-10T16:20:03.971Z,13.63
2019-04-10T16:22:40.562Z,13.36
2019-04-10T16:25:22.710Z,13.35
2019-04-10T16:27:50.489Z,13.20
2019-04-10T16:30:22.020Z,13.05
2019-04-10T16:32:50.188Z,13.10
2019-04-10T16:35:19.050Z,13.19
2019-04-10T16:37:47.494Z,13.21
2019-04-10T16:40:15.325Z,13.01
2019-04-10T16:42:43.614Z,12.98
2019-04-10T16:45:13.473Z,12.93
2019-04-10T16:47:42.000Z,12.94
2019-04-10T16:50:11.200Z,12.89
2019-04-10T16:52:39.075Z,12.85
2019-04-10T16:55:08.410Z,12.75
2019-04-10T16:57:36.656Z,12.85
2019-04-10T17:00:06.919Z,12.63
2019-04-10T17:02:35.995Z,12.45
2019-04-10T17:05:05.981Z,12.33
2019-04-10T17:07:34.866Z,12.38
2019-04-10T17:10:13.090Z,12.22
2019-04-10T17:12:34.123Z,12.24
2019-04-10T17:15:02.088Z,12.21
2019-04-10T17:17:30.537Z,12.15
2019-04-10T17:19:59.498Z,12.10
2019-04-10T17:22:32.338Z,12.05
2019-04-10T17:24:57.880Z,12.08
2019-04-10T17:27:25.819Z,12.06
2019-04-10T17:29:55.239Z,11.99
2019-04-10T17:32:23.504Z,12.06
2019-04-10T17:34:51.518Z,11.89
2019-04-10T17:37:19.442Z,11.80
2019-04-10T17:39:47.378Z,11.70
2019-04-10T17:42:16.449Z,11.46
2019-04-10T17:44:45.576Z,11.53
2019-04-10T17:47:14.431Z,11.50
2019-04-10T17:49:43.400Z,11.22
2019-04-10T17:52:11.334Z,11.28
2019-04-10T17:54:39.189Z,11.20
2019-04-10T17:57:06.977Z,11.14
2019-04-10T17:59:34.955Z,11.06
2019-04-10T18:02:07.520Z,11.06
2019-04-10T18:04:35.369Z,11.01
2019-04-10T18:07:03.868Z,10.78
2019-04-10T18:09:32.741Z,10.61
2019-04-10T18:12:01.084Z,10.60
2019-04-10T18:14:29.140Z,10.50
2019-04-10T18:16:58.152Z,10.49
2019-04-10T18:19:26.034Z,10.43
2019-04-10T18:21:54.192Z,10.30
2019-04-10T18:24:22.156Z,10.09
2019-04-10T18:26:52.312Z,9.98
2019-04-10T18:29:19.664Z,9.88
2019-04-10T18:31:47.437Z,9.74
2019-04-10T18:34:15.506Z,9.86
2019-04-10T18:36:46.301Z,9.72
2019-04-10T18:39:18.303Z,9.68
2019-04-10T18:41:46.706Z,9.60
2019-04-10T18:44:15.050Z,9.50
2019-04-10T18:46:43.753Z,9.56
2019-04-10T18:49:11.565Z,9.50
2019-04-10T18:51:40.373Z,9.63
2019-04-10T18:54:10.811Z,9.54
2019-04-10T18:56:37.889Z,9.48
2019-04-10T18:59:12.390Z,9.33
2019-04-10T19:01:49.381Z,9.35
2019-04-10T19:04:39.225Z,9.17
2019-04-10T19:07:07.113Z,9.23
2019-04-10T19:09:36.864Z,9.13
2019-04-10T19:12:04.702Z,9.10
2019-04-10T19:14:36.205Z,9.02
2019-04-10T19:17:03.687Z,8.98
2019-04-10T19:19:32.389Z,8.91
2019-04-10T19:22:00.297Z,8.84
2019-04-10T19:24:30.219Z,8.74
2019-04-10T19:26:58.171Z,8.75
2019-04-10T19:29:25.931Z,8.85
2019-04-10T19:31:56.393Z,8.67
2019-04-10T19:34:25.322Z,8.64
2019-04-10T19:36:54.328Z,8.69
2019-04-10T19:39:22.367Z,8.61
2019-04-10T19:41:50.983Z,8.58
2019-04-10T19:44:19.077Z,8.60
2019-04-10T19:46:48.027Z,8.57
2019-04-10T19:49:16.369Z,8.42
2019-04-10T19:51:44.176Z,8.46
2019-04-10T19:54:11.987Z,8.50
2019-04-10T19:56:40.512Z,8.41
2019-04-10T19:59:08.451Z,8.17
2019-04-10T20:01:36.269Z,8.22
2019-04-10T20:04:04.069Z,8.17
2019-04-10T20:06:32.211Z,8.15
2019-04-10T20:09:00.157Z,8.05
2019-04-10T20:11:37.532Z,8.12
2019-04-10T20:13:59.999Z,8.09
2019-04-10T20:16:27.268Z,8.08
2019-04-10T20:18:55.029Z,8.08
2019-04-10T20:21:23.829Z,8.03
2019-04-10T20:23:52.333Z,7.93
2019-04-10T20:26:21.050Z,7.67
2019-04-10T20:28:49.750Z,7.57
2019-04-10T20:31:24.161Z,7.76
2019-04-10T20:33:51.937Z,7.78
2019-04-10T20:36:20.587Z,7.76
2019-04-10T20:38:48.471Z,7.67
2019-04-10T20:41:16.304Z,7.66
2019-04-10T20:43:44.848Z,7.61
2019-04-10T20:46:13.767Z,7.48
2019-04-10T20:48:41.629Z,7.56
2019-04-10T20:51:10.292Z,7.59
2019-04-10T20:53:38.074Z,7.43
2019-04-10T20:56:06.250Z,7.42
2019-04-10T20:58:34.101Z,7.40
2019-04-10T21:01:01.876Z,7.35
2019-04-10T21:03:31.766Z,7.45
2019-04-10T21:06:00.456Z,7.37
2019-04-10T21:08:28.217Z,7.30
2019-04-10T21:10:56.964Z,7.24
2019-04-10T21:13:25.380Z,7.22
2019-04-10T21:15:53.301Z,7.26
2019-04-10T21:18:22.152Z,7.29
2019-04-10T21:20:50.011Z,7.15
2019-04-10T21:23:17.811Z,7.17
2019-04-10T21:25:45.658Z,7.08
2019-04-10T21:28:14.131Z,6.99
2019-04-10T21:30:53.110Z,7.11
2019-04-10T21:33:26.655Z,7.05
2019-04-10T21:35:54.435Z,6.97
2019-04-10T21:38:22.171Z,6.89
2019-04-10T21:40:49.890Z,6.84
2019-04-10T21:43:18.554Z,6.91
2019-04-10T21:45:47.569Z,6.81
2019-04-10T21:48:15.383Z,6.76
2019-04-10T21:50:43.946Z,6.74
2019-04-10T21:53:12.227Z,6.77
2019-04-10T21:55:40.021Z,6.82
2019-04-10T21:58:08.177Z,6.84
2019-04-10T22:00:54.015Z,6.74
2019-04-10T22:03:22.305Z,6.66
2019-04-10T22:05:55.342Z,6.49
2019-04-10T22:08:33.648Z,6.50
2019-04-10T22:11:01.445Z,6.59
2019-04-10T22:13:30.185Z,6.54
2019-04-10T22:15:59.572Z,6.54
2019-04-10T22:18:27.561Z,6.48
2019-04-10T22:20:57.078Z,6.38
2019-04-10T22:23:24.967Z,6.33
2019-04-10T22:25:52.817Z,6.34
2019-04-10T22:28:21.124Z,6.32
2019-04-10T22:30:50.593Z,6.29
2019-04-10T22:33:18.537Z,6.34
2019-04-10T22:35:46.357Z,6.31
2019-04-10T22:38:15.179Z,6.23
2019-04-10T22:40:44.155Z,6.23
2019-04-10T22:43:11.983Z,6.23
2019-04-10T22:45:40.179Z,6.19
2019-04-10T22:48:08.348Z,6.22
2019-04-10T22:50:36.524Z,6.09
2019-04-10T22:53:04.716Z,6.15
2019-04-10T22:55:33.729Z,6.14
2019-04-10T22:58:02.527Z,5.97
2019-04-10T23:00:30.851Z,5.97
2019-04-10T23:02:58.855Z,6.03
2019-04-10T23:05:28.701Z,5.99
2019-04-10T23:07:56.978Z,6.07
2019-04-10T23:10:24.906Z,6.07
2019-04-10T23:12:59.985Z,5.88
2019-04-10T23:15:23.114Z,5.86
2019-04-10T23:17:50.987Z,5.91
2019-04-10T23:20:18.721Z,5.85
2019-04-10T23:22:48.518Z,5.63
2019-04-10T23:25:16.185Z,5.64
2019-04-10T23:27:44.100Z,5.65
2019-04-10T23:30:15.592Z,5.67
2019-04-10T23:32:43.610Z,5.65
2019-04-10T23:35:11.608Z,5.56
2019-04-10T23:37:39.470Z,5.50
2019-04-10T23:40:08.363Z,5.48
2019-04-10T23:42:36.243Z,5.47
2019-04-10T23:45:05.158Z,5.46
2019-04-10T23:47:34.023Z,5.37
2019-04-10T23:50:01.991Z,5.28
2019-04-10T23:52:29.792Z,5.23
2019-04-10T23:54:57.622Z,5.29
2019-04-10T23:57:25.451Z,5.26
2019-04-10T23:59:53.199Z,5.28
